1981 Tropical Cyclone AMELIA (1981337S11133)


IBTrACS version v04r00. Visit IBTrACS website for data access.
Please direct all questions to the IBTrACS Q and A forum

Storm track - Intensity - Wind Radii - Intensity Data - Source Data - All data

Summary Information

Satellite image near maximum intensity
Storm ID 1981337S11133
Start Dec 3 09Z
Landfall Dec 3 17Z
Max Intensity 35 kt (Dec 5 00Z), 996 mb (Dec 5 05Z)
End Dec 7 06Z
ATCF IDs
Track status Best track data.
Spur track This storm is a spur track associated with the main storm: 1981335S16139

Storm track plot

Map of storm track

Intensity plots

Map of storm track

Radial wind information

No radial wind information for this storm


Position and Intensity Table

BASIN ISO_TIME_________ NATURE LAT LON NEUMANN WIND NEUMANN PRES
degrees north degrees east kts mb
SI 1981-12-03 09:00:00 TS -11.34 133.11
SI 11:00:00 TS -11.23 132.90
SI 12:00:00 TS -11.20 132.80 30 999
SI 15:00:00 TS -11.21 132.57 30 999
SI 17:00:00 TS -11.27 132.45 30 999
SI 18:00:00 TS -11.30 132.40 30 1000
SI 20:00:00 TS -11.35 132.32 30 1000
SI 21:00:00 TS -11.38 132.28 30 1000
SI 23:00:00 TS -11.46 132.23 30 1000
SI 1981-12-04 00:00:00 TS -11.50 132.20 30 1000
SI 02:00:00 TS -11.60 132.18 30 1000
SI 03:00:00 TS -11.65 132.16 30 1000
SI 05:00:00 TS -11.75 132.08 30 1000
SI 06:00:00 TS -11.80 132.00 30 1000
SI 08:00:00 TS -11.89 131.72 30 1000
SI 09:00:00 TS -11.93 131.55 30 1000
SI 11:00:00 TS -11.99 131.18 30 1000
SI 12:00:00 TS -12.00 131.00 30 1000
SI 15:00:00 TS -12.01 130.64 30 1000
SI 17:00:00 TS -11.95 130.37 30 1000
SI 18:00:00 TS -11.90 130.20 30 1000
SI 20:00:00 TS -11.71 129.70 31 999
SI 21:00:00 TS -11.59 129.43 32 999
SI 23:00:00 TS -11.38 128.91 34 998
SI 1981-12-05 00:00:00 TS -11.30 128.70 35 998
SI 02:00:00 TS -11.24 128.47 35 997
SI 03:00:00 TS -11.24 128.39 35 997
SI 05:00:00 TS -11.27 128.27 35 996
SI 06:00:00 TS -11.30 128.20 35 996
SI 08:00:00 TS -11.34 127.98 35 996
SI 09:00:00 TS -11.37 127.86 35 996
SI 11:00:00 TS -11.45 127.62 35 996
SI 12:00:00 TS -11.50 127.50 35 996
SI 15:00:00 TS -11.68 127.19 35 996
SI 17:00:00 TS -11.83 127.00 35 996
SI 18:00:00 TS -11.90 126.90 35 996
SI 21:00:00 TS -12.11 126.61 35 996
SI 23:00:00 TS -12.24 126.41 35 996
SI 1981-12-06 00:00:00 TS -12.30 126.30 35 997
SI 02:00:00 TS -12.39 126.10 35 997
SI 03:00:00 TS -12.43 125.99 35 997
SI 05:00:00 TS -12.54 125.74 35 997
SI 06:00:00 TS -12.60 125.60 35 998
SI 09:00:00 TS -12.89 125.07 32 999
SI 12:00:00 TS -13.20 124.50 30 1000
SI 15:00:00 TS -13.48 123.96 27 1001
SI 18:00:00 TS -13.70 123.50 25 1002
SI 21:00:00 TS -13.81 123.23 25 1002
SI 1981-12-07 00:00:00 TS -13.90 122.90 25 1003
SI 03:00:00 TS -14.03 122.29 25 1003
SI 06:00:00 TS -14.20 121.50 25 1003

Source Information

Agency Information
USA
TOKYO
CMA
HKO
NEWDELHI
REUNION
BOM
NADI
WELLINGTON
DS824
TD9636
TD9635
NEUMANN tracks.sh:Storm=625:AMELIA:BSH0482:BM528
MLC

All available IBTrACS Data

SEASON BASIN SUBBASIN ISO_TIME_________ NATURE LAT LON DIST2LAND LANDFALL IFLAG USA SSHS NEUMANN LAT NEUMANN LON NEUMANN CLASS NEUMANN WIND NEUMANN PRES STORM SPEED STORM DIR
Year degrees north degrees east km km 1 degrees north degrees east kts mb kts degrees
1982 SI WA 1981-12-03 09:00:00 TS -11.34 133.11 24 15 ______________ -1 7 296
1982 SI WA 11:00:00 TS -11.23 132.90 22 22 ______________ -1 7 294
1982 SI WA 12:00:00 TS -11.20 132.80 24 15 ____________O_ -1 -11.20 132.80 TC 30 999 5 274
1982 SI WA 15:00:00 TS -11.21 132.57 15 0 ____________P_ -1 -11.24 132.58 TC 30 999 4 259
1982 SI WA 17:00:00 TS -11.27 132.45 0 0 ____________P_ -1 -11.28 132.45 TC 30 999 4 243
1982 SI WA 18:00:00 TS -11.30 132.40 0 0 ____________O_ -1 -11.30 132.40 TC 30 1000 3 237
1982 SI WA 20:00:00 TS -11.35 132.32 0 0 ____________P_ -1 -11.35 132.32 TC 30 1000 3 233
1982 SI WA 21:00:00 TS -11.38 132.28 0 0 ____________P_ -1 -11.38 132.28 TC 30 1000 3 220
1982 SI WA 23:00:00 TS -11.46 132.23 0 0 ____________P_ -1 -11.46 132.23 TC 30 1000 3 213
1982 SI WA 1981-12-04 00:00:00 TS -11.50 132.20 0 0 ____________O_ -1 -11.50 132.20 TC 30 1000 3 200
1982 SI WA 02:00:00 TS -11.60 132.18 11 11 ____________P_ -1 -11.60 132.18 TC 30 1000 3 192
1982 SI WA 03:00:00 TS -11.65 132.16 11 11 ____________P_ -1 -11.65 132.16 TC 30 1000 4 211
1982 SI WA 05:00:00 TS -11.75 132.08 33 33 ____________P_ -1 -11.75 132.08 TC 30 1000 4 226
1982 SI WA 06:00:00 TS -11.80 132.00 35 35 ____________O_ -1 -11.80 132.00 TC 30 1000 8 249
1982 SI WA 08:00:00 TS -11.89 131.72 40 35 ____________P_ -1 -11.89 131.72 TC 30 1000 9 254
1982 SI WA 09:00:00 TS -11.93 131.55 31 11 ____________P_ -1 -11.93 131.55 TC 30 1000 11 260
1982 SI WA 11:00:00 TS -11.99 131.18 15 11 ____________P_ -1 -11.99 131.18 TC 30 1000 11 263
1982 SI WA 12:00:00 TS -12.00 131.00 11 11 ____________O_ -1 -12.00 131.00 TC 30 1000 8 267
1982 SI WA 15:00:00 TS -12.01 130.64 22 22 ____________P_ -1 -12.01 130.64 TC 30 1000 7 274
1982 SI WA 17:00:00 TS -11.95 130.37 22 11 ____________P_ -1 -11.95 130.37 TC 30 1000 9 284
1982 SI WA 18:00:00 TS -11.90 130.20 11 0 ____________O_ -1 -11.90 130.20 TC 30 1000 14 291
1982 SI WA 20:00:00 TS -11.71 129.70 44 44 ____________P_ -1 -11.71 129.70 TC 31 999 16 292
1982 SI WA 21:00:00 TS -11.59 129.43 77 77 ____________P_ -1 -11.59 129.43 TC 32 999 17 293
1982 SI WA 23:00:00 TS -11.38 128.91 131 131 ____________P_ -1 -11.38 128.91 TC 34 998 15 292
1982 SI WA 1981-12-05 00:00:00 TS -11.30 128.70 154 154 ____________O_ -1 -11.30 128.70 TC 35 998 9 288
1982 SI WA 02:00:00 TS -11.24 128.47 177 177 ____________P_ -1 -11.24 128.47 TC 35 997 6 281
1982 SI WA 03:00:00 TS -11.24 128.39 188 188 ____________P_ -1 -11.24 128.39 TC 35 997 4 261
1982 SI WA 05:00:00 TS -11.27 128.27 197 197 ____________P_ -1 -11.27 128.27 TC 35 996 4 252
1982 SI WA 06:00:00 TS -11.30 128.20 208 208 ____________O_ -1 -11.30 128.20 TC 35 996 6 257
1982 SI WA 08:00:00 TS -11.34 127.98 230 230 ____________P_ -1 -11.34 127.98 TC 35 996 7 258
1982 SI WA 09:00:00 TS -11.37 127.86 240 240 ____________P_ -1 -11.37 127.86 TC 35 996 7 253
1982 SI WA 11:00:00 TS -11.45 127.62 263 261 ____________P_ -1 -11.45 127.62 TC 35 996 7 250
1982 SI WA 12:00:00 TS -11.50 127.50 261 235 ____________O_ -1 -11.50 127.50 TC 35 996 7 240
1982 SI WA 15:00:00 TS -11.68 127.19 235 223 ____________P_ -1 -11.68 127.19 TC 35 996 7 236
1982 SI WA 17:00:00 TS -11.83 127.00 223 212 ____________P_ -1 -11.83 127.00 TC 35 996 7 233
1982 SI WA 18:00:00 TS -11.90 126.90 212 191 ____________O_ -1 -11.90 126.90 TC 35 996 7 234
1982 SI WA 21:00:00 TS -12.11 126.61 193 184 ____________P_ -1 -12.11 126.61 TC 35 996 7 235
1982 SI WA 23:00:00 TS -12.24 126.41 187 176 ____________P_ -1 -12.24 126.41 TC 35 996 7 237
1982 SI WA 1981-12-06 00:00:00 TS -12.30 126.30 180 174 ____________O_ -1 -12.30 126.30 TC 35 997 7 243
1982 SI WA 02:00:00 TS -12.39 126.10 179 179 ____________P_ -1 -12.39 126.10 TC 35 997 7 246
1982 SI WA 03:00:00 TS -12.43 125.99 179 169 ____________P_ -1 -12.43 125.99 TC 35 997 8 247
1982 SI WA 05:00:00 TS -12.54 125.74 173 162 ____________P_ -1 -12.54 125.74 TC 35 997 8 246
1982 SI WA 06:00:00 TS -12.60 125.60 165 159 ____________O_ -1 -12.60 125.60 TC 35 998 11 242
1982 SI WA 09:00:00 TS -12.89 125.07 163 159 ____________P_ -1 -12.89 125.07 TC 32 999 12 241
1982 SI WA 12:00:00 TS -13.20 124.50 171 169 ____________O_ -1 -13.20 124.50 TC 30 1000 12 241
1982 SI WA 15:00:00 TS -13.48 123.96 178 178 ____________P_ -1 -13.48 123.96 TC 27 1001 11 243
1982 SI WA 18:00:00 TS -13.70 123.50 209 209 ____________O_ -1 -13.70 123.50 TC 25 1002 8 245
1982 SI WA 21:00:00 TS -13.81 123.23 232 232 ____________P_ -1 -13.81 123.23 TC 25 1002 6 251
1982 SI WA 1981-12-07 00:00:00 TS -13.90 122.90 249 249 ____________O_ -1 -13.90 122.90 TC 25 1003 9 257
1982 SI WA 03:00:00 TS -14.03 122.29 287 278 ____________P_ -1 -14.03 122.29 TC 25 1003 14 258
1982 SI WA 06:00:00 TS -14.20 121.50 298 ____________O_ -1 -14.20 121.50 TC 25 1003 16 258